Time;durP1;ratioP1;P1;durP2;ratioP2;P2;SDS_P1;SDS_P2;PMS_P1;PMS_P2;Temp;Humidity;BMP_temperature;BMP_pressure;BME280_temperature;BME280_humidity;BME280_pressure;Samples;Min_cycle;Max_cycle;Signal;HPM_P1;HPM_P2
2021/11/26 00:00:33;;;;;;;30.90;13.40;;;-0.10;99.40;;;;;;2064889;28;20250;-61
2021/11/26 00:01:34;;;;;;;31.13;12.73;;;0.00;99.50;;;;;;2064970;28;20193;-59
2021/11/26 00:02:35;;;;;;;32.43;12.53;;;0.00;99.30;;;;;;2065412;28;20189;-61
2021/11/26 00:03:36;;;;;;;24.52;11.13;;;0.00;99.10;;;;;;2065379;28;20182;-59
2021/11/26 00:04:36;;;;;;;29.37;11.73;;;0.00;99.00;;;;;;2065347;28;20189;-61
2021/11/26 00:05:37;;;;;;;31.67;12.63;;;0.00;99.00;;;;;;2065210;28;20178;-61
2021/11/26 00:06:38;;;;;;;28.70;12.20;;;0.00;98.90;;;;;;2065271;28;20273;-58
2021/11/26 00:07:38;;;;;;;28.50;12.43;;;0.00;99.00;;;;;;2064932;28;20257;-61
2021/11/26 00:08:39;;;;;;;29.07;12.40;;;0.00;99.10;;;;;;2065259;28;20229;-61
2021/11/26 00:09:40;;;;;;;28.63;12.90;;;0.00;99.10;;;;;;2065294;28;20192;-59
2021/11/26 00:10:41;;;;;;;32.40;12.77;;;0.10;98.90;;;;;;2065133;28;20217;-61
2021/11/26 00:11:41;;;;;;;34.20;13.00;;;0.10;98.90;;;;;;2065211;28;20197;-59
2021/11/26 00:12:51;;;;;;;29.70;12.30;;;0.10;98.90;;;;;;2056531;28;20222;-61
2021/11/26 00:14:07;;;;;;;28.80;12.60;;;0.10;98.90;;;;;;2058140;28;20244;-59
2021/11/26 00:15:18;;;;;;;33.88;12.80;;;0.20;98.80;;;;;;2065464;28;20229;-61
2021/11/26 00:16:21;;;;;;;29.25;11.75;;;0.20;98.50;;;;;;2065448;28;20182;-61
2021/11/26 00:17:21;;;;;;;28.40;11.85;;;0.20;98.60;;;;;;2064603;28;20182;-61
2021/11/26 00:18:22;;;;;;;29.80;12.13;;;0.20;98.40;;;;;;2065229;28;20179;-61
2021/11/26 00:19:26;;;;;;;26.83;11.93;;;0.20;98.30;;;;;;2065245;28;20678;-61
2021/11/26 00:20:27;;;;;;;29.25;12.88;;;0.20;98.20;;;;;;2065161;28;20175;-61
2021/11/26 00:21:28;;;;;;;29.50;11.83;;;0.20;98.20;;;;;;2065190;28;20183;-61
2021/11/26 00:22:28;;;;;;;27.20;11.73;;;0.20;98.20;;;;;;2065121;28;20175;-61
2021/11/26 00:23:29;;;;;;;28.07;11.20;;;0.20;98.30;;;;;;2065132;28;20178;-61
2021/11/26 00:24:30;;;;;;;29.03;12.07;;;0.20;98.40;;;;;;2065234;28;20198;-61
2021/11/26 00:25:31;;;;;;;25.10;11.30;;;0.30;98.40;;;;;;2065028;28;20217;-61
2021/11/26 00:26:32;;;;;;;28.15;11.93;;;0.30;98.20;;;;;;2065155;28;20206;-61
2021/11/26 00:27:33;;;;;;;25.30;11.20;;;0.30;98.00;;;;;;2064916;28;20202;-62
2021/11/26 00:28:34;;;;;;;24.53;11.53;;;0.30;97.50;;;;;;2065101;28;20222;-61
2021/11/26 00:29:34;;;;;;;25.67;12.03;;;0.40;97.20;;;;;;2065081;28;20186;-62
2021/11/26 00:30:35;;;;;;;21.70;10.53;;;0.30;97.00;;;;;;2064835;28;20210;-61
2021/11/26 00:31:37;;;;;;;23.10;10.77;;;0.40;97.10;;;;;;2065021;28;20186;-62
2021/11/26 00:32:38;;;;;;;26.52;11.65;;;0.40;97.10;;;;;;2065086;28;20190;-61
2021/11/26 00:33:39;;;;;;;23.00;11.07;;;0.30;97.10;;;;;;2064964;28;20251;-60
2021/11/26 00:34:39;;;;;;;22.47;10.73;;;0.30;97.20;;;;;;2064855;28;20177;-61
2021/11/26 00:35:40;;;;;;;28.37;11.77;;;0.30;97.00;;;;;;2064910;28;20984;-61
2021/11/26 00:36:41;;;;;;;28.97;11.97;;;0.40;97.00;;;;;;2064909;28;20543;-61
2021/11/26 00:37:41;;;;;;;24.27;10.47;;;0.40;97.10;;;;;;2064705;28;20252;-59
2021/11/26 00:38:42;;;;;;;23.37;10.83;;;0.40;97.20;;;;;;2064813;28;20205;-62
2021/11/26 00:39:43;;;;;;;26.40;11.80;;;0.40;97.10;;;;;;2064913;28;20182;-62
2021/11/26 00:40:44;;;;;;;24.80;11.00;;;0.40;97.00;;;;;;2064837;28;20252;-61
2021/11/26 00:41:46;;;;;;;26.42;11.32;;;0.50;96.90;;;;;;2064859;28;20186;-61
2021/11/26 00:42:46;;;;;;;22.05;10.70;;;0.50;96.60;;;;;;2056306;28;20207;-61
2021/11/26 00:43:47;;;;;;;21.57;10.00;;;0.50;96.40;;;;;;2056111;28;20530;-61
2021/11/26 00:44:48;;;;;;;22.13;10.60;;;0.50;96.20;;;;;;2064958;28;20182;-60
2021/11/26 00:45:49;;;;;;;22.63;10.60;;;0.60;96.20;;;;;;2056233;28;20282;-60
2021/11/26 00:46:50;;;;;;;24.17;11.57;;;0.50;96.20;;;;;;2056160;28;20194;-61
2021/11/26 00:47:51;;;;;;;24.50;10.90;;;0.50;96.40;;;;;;2064782;28;20213;-61
2021/11/26 00:48:51;;;;;;;24.47;10.97;;;0.50;96.30;;;;;;2064835;28;20249;-61
2021/11/26 00:49:53;;;;;;;23.87;11.47;;;0.50;96.90;;;;;;2064867;28;20179;-61
2021/11/26 00:50:53;;;;;;;26.77;11.15;;;0.50;96.40;;;;;;2064855;28;20221;-61
2021/11/26 00:51:54;;;;;;;24.30;11.60;;;0.50;96.50;;;;;;2064988;28;20217;-62
2021/11/26 00:52:55;;;;;;;24.93;11.47;;;0.50;96.30;;;;;;2064850;28;20174;-61
2021/11/26 00:53:55;;;;;;;22.57;10.47;;;0.60;96.20;;;;;;2064868;28;20198;-62
2021/11/26 00:54:56;;;;;;;22.90;11.10;;;0.60;96.20;;;;;;2064851;28;20182;-61
2021/11/26 00:55:57;;;;;;;22.60;11.10;;;0.50;96.00;;;;;;2064813;28;20179;-61
2021/11/26 00:56:58;;;;;;;24.25;10.75;;;0.50;96.00;;;;;;2064543;28;20170;-61
2021/11/26 00:57:59;;;;;;;21.63;10.47;;;0.50;95.90;;;;;;2064739;28;20690;-61
2021/11/26 00:58:59;;;;;;;21.53;10.50;;;0.60;95.80;;;;;;2064820;28;20174;-61
2021/11/26 01:00:00;;;;;;;22.97;11.50;;;0.60;95.60;;;;;;2056010;28;20530;-60
2021/11/26 01:01:01;;;;;;;26.20;11.67;;;0.60;95.20;;;;;;2056185;28;20695;-61
2021/11/26 01:02:03;;;;;;;24.60;11.30;;;0.50;95.50;;;;;;2064734;28;20428;-61
2021/11/26 01:03:05;;;;;;;23.75;11.20;;;0.50;95.50;;;;;;2056137;28;20185;-62
2021/11/26 01:04:06;;;;;;;24.48;11.30;;;0.50;95.50;;;;;;2056349;28;20549;-62
2021/11/26 01:05:10;;;;;;;26.13;11.37;;;0.50;95.60;;;;;;2064708;28;20215;-62
2021/11/26 01:06:11;;;;;;;24.88;11.35;;;0.50;95.50;;;;;;2064829;28;20221;-61
2021/11/26 01:07:12;;;;;;;26.43;11.73;;;0.60;95.40;;;;;;2064457;28;20741;-62
2021/11/26 01:08:12;;;;;;;24.10;10.87;;;0.60;95.30;;;;;;2064765;28;20188;-61
2021/11/26 01:09:13;;;;;;;23.27;10.40;;;0.60;95.30;;;;;;2064943;28;20213;-62
2021/11/26 01:10:18;;;;;;;23.80;10.67;;;0.60;95.20;;;;;;2064650;28;20210;-61
2021/11/26 01:11:19;;;;;;;25.48;11.38;;;0.60;95.30;;;;;;2064659;28;20173;-61
2021/11/26 01:12:20;;;;;;;26.30;11.87;;;0.60;95.30;;;;;;2065774;28;20601;-61
2021/11/26 01:13:21;;;;;;;29.17;11.50;;;0.50;95.10;;;;;;2066499;28;20685;-61
2021/11/26 01:14:23;;;;;;;20.90;10.13;;;0.50;95.20;;;;;;2066511;28;20210;-60
2021/11/26 01:15:28;;;;;;;26.75;11.75;;;0.50;95.30;;;;;;2066647;28;20190;-61
2021/11/26 01:16:29;;;;;;;29.33;11.73;;;0.50;95.80;;;;;;2066425;28;20163;-61
2021/11/26 01:17:30;;;;;;;24.47;11.00;;;0.50;95.30;;;;;;2066174;28;20284;-61
2021/11/26 01:18:31;;;;;;;27.40;12.15;;;0.50;95.30;;;;;;2066480;28;20214;-61
2021/11/26 01:19:32;;;;;;;28.47;12.97;;;0.50;95.30;;;;;;2066508;28;20189;-59
2021/11/26 01:20:35;;;;;;;21.53;10.87;;;0.40;95.50;;;;;;2066403;28;20185;-61
2021/11/26 01:21:36;;;;;;;22.02;11.73;;;0.40;95.70;;;;;;2066513;28;20178;-62
2021/11/26 01:22:36;;;;;;;27.77;11.53;;;0.40;95.80;;;;;;2066509;28;20265;-60
2021/11/26 01:23:38;;;;;;;24.03;11.17;;;0.40;95.50;;;;;;2066552;28;20264;-61
2021/11/26 01:24:39;;;;;;;28.00;11.50;;;0.40;95.50;;;;;;2066344;28;20190;-61
2021/11/26 01:25:40;;;;;;;26.17;11.65;;;0.30;95.60;;;;;;2066481;28;20194;-62
2021/11/26 01:26:41;;;;;;;25.50;11.57;;;0.30;95.70;;;;;;2066347;28;20190;-61
2021/11/26 01:27:42;;;;;;;23.13;10.80;;;0.30;95.90;;;;;;2066178;28;20206;-61
2021/11/26 01:28:43;;;;;;;25.63;12.10;;;0.30;95.90;;;;;;2066588;28;20190;-61
2021/11/26 01:29:44;;;;;;;29.47;12.20;;;0.30;95.90;;;;;;2066561;28;20190;-61
2021/11/26 01:30:49;;;;;;;27.77;11.53;;;0.30;95.90;;;;;;2066195;28;20284;-61
2021/11/26 01:31:49;;;;;;;29.17;11.73;;;0.30;96.00;;;;;;2066474;28;20178;-61
2021/11/26 01:32:52;;;;;;;24.77;11.90;;;0.30;96.20;;;;;;2066006;28;20625;-61
2021/11/26 01:33:55;;;;;;;29.35;12.35;;;0.20;96.30;;;;;;2066366;28;20178;-61
2021/11/26 01:34:55;;;;;;;29.05;12.20;;;0.20;96.40;;;;;;2066436;28;20236;-61
2021/11/26 01:35:56;;;;;;;27.30;11.43;;;0.20;96.40;;;;;;2066291;28;20602;-61
2021/11/26 01:36:57;;;;;;;30.87;12.23;;;0.20;96.50;;;;;;2066026;28;20173;-62
2021/11/26 01:37:58;;;;;;;25.07;12.10;;;0.20;96.50;;;;;;2066140;28;20626;-59
2021/11/26 01:38:59;;;;;;;27.08;11.23;;;0.20;96.30;;;;;;2066351;28;20639;-59
2021/11/26 01:40:00;;;;;;;31.30;12.80;;;0.20;96.30;;;;;;2066250;28;20596;-62
2021/11/26 01:41:01;;;;;;;25.87;12.30;;;0.20;96.50;;;;;;2066403;28;20232;-61
2021/11/26 01:42:01;;;;;;;28.00;11.73;;;0.10;96.50;;;;;;2066299;28;20655;-61
2021/11/26 01:43:06;;;;;;;26.30;12.20;;;0.20;96.60;;;;;;2066365;28;20296;-61
2021/11/26 01:44:06;;;;;;;25.13;11.60;;;0.10;96.60;;;;;;2066271;28;20178;-61
2021/11/26 01:45:08;;;;;;;27.50;12.17;;;0.20;96.60;;;;;;2066307;28;20183;-61
2021/11/26 01:46:09;;;;;;;26.73;11.30;;;0.20;96.40;;;;;;2066210;28;20215;-60
2021/11/26 01:47:14;;;;;;;29.42;11.73;;;0.20;96.40;;;;;;2065919;28;20190;-61
2021/11/26 01:48:16;;;;;;;30.50;13.02;;;0.20;96.40;;;;;;2066075;28;20205;-61
2021/11/26 01:49:17;;;;;;;30.05;12.40;;;0.20;96.40;;;;;;2066254;28;20268;-61
2021/11/26 01:50:22;;;;;;;28.60;12.43;;;0.20;96.40;;;;;;2066193;28;20689;-61
2021/11/26 01:51:23;;;;;;;27.35;11.85;;;0.20;96.30;;;;;;2066362;28;20217;-61
2021/11/26 01:52:23;;;;;;;29.13;12.70;;;0.20;96.50;;;;;;2066349;28;20183;-61
2021/11/26 01:53:24;;;;;;;23.93;11.53;;;0.30;96.60;;;;;;2066271;28;20273;-61
2021/11/26 01:54:25;;;;;;;25.00;11.33;;;0.30;96.60;;;;;;2066060;28;20186;-61
2021/11/26 01:55:26;;;;;;;32.00;13.00;;;0.30;96.60;;;;;;2066365;28;20190;-61
2021/11/26 01:56:27;;;;;;;30.37;11.57;;;0.30;96.50;;;;;;2066166;28;20178;-61
2021/11/26 01:57:27;;;;;;;27.60;13.02;;;0.30;96.50;;;;;;2065932;28;20384;-61
2021/11/26 01:58:28;;;;;;;27.67;12.43;;;0.20;96.40;;;;;;2066235;28;20228;-60
2021/11/26 01:59:31;;;;;;;24.70;11.67;;;0.20;96.60;;;;;;2066116;28;20179;-62
2021/11/26 02:00:33;;;;;;;27.55;11.63;;;0.20;96.60;;;;;;2066142;28;20193;-61
2021/11/26 02:01:34;;;;;;;27.73;12.20;;;0.20;96.50;;;;;;2066113;28;20186;-61
2021/11/26 02:02:35;;;;;;;29.20;12.20;;;0.20;96.40;;;;;;2066082;28;20191;-62
2021/11/26 02:03:36;;;;;;;29.93;12.33;;;0.20;96.80;;;;;;2066112;28;20229;-61
2021/11/26 02:04:37;;;;;;;24.20;11.87;;;0.20;96.50;;;;;;2065948;28;20560;-61
2021/11/26 02:05:37;;;;;;;24.33;11.80;;;0.20;96.40;;;;;;2066153;28;20521;-61
2021/11/26 02:06:38;;;;;;;24.43;11.73;;;0.20;96.30;;;;;;2066063;28;20602;-62
2021/11/26 02:07:39;;;;;;;22.90;10.73;;;0.30;96.30;;;;;;2065824;28;20575;-61
2021/11/26 02:08:40;;;;;;;28.53;11.33;;;0.30;96.20;;;;;;2065990;28;20171;-62
2021/11/26 02:09:41;;;;;;;24.97;11.30;;;0.30;96.20;;;;;;2066207;28;20175;-61
2021/11/26 02:10:42;;;;;;;30.60;13.85;;;0.30;96.10;;;;;;2065950;28;20683;-62
2021/11/26 02:11:43;;;;;;;31.58;11.90;;;0.30;95.90;;;;;;2065958;28;20194;-61
2021/11/26 02:12:44;;;;;;;30.20;12.47;;;0.30;95.90;;;;;;2066026;28;20270;-61
2021/11/26 02:13:45;;;;;;;32.03;13.07;;;0.30;96.00;;;;;;2066000;28;20567;-61
2021/11/26 02:14:46;;;;;;;26.93;12.10;;;0.30;96.00;;;;;;2065889;28;20171;-61
2021/11/26 02:15:47;;;;;;;27.52;12.98;;;0.30;96.20;;;;;;2066039;28;20182;-61
2021/11/26 02:16:50;;;;;;;27.90;11.80;;;0.30;96.10;;;;;;2065791;28;20189;-61
2021/11/26 02:17:54;;;;;;;27.77;12.15;;;0.40;96.10;;;;;;2066020;28;20280;-62
2021/11/26 02:18:54;;;;;;;25.77;12.57;;;0.40;96.20;;;;;;2065863;28;20186;-62
2021/11/26 02:19:59;;;;;;;26.17;11.83;;;0.40;96.10;;;;;;2065996;28;20179;-61
2021/11/26 02:21:00;;;;;;;27.45;12.55;;;0.40;96.20;;;;;;2065871;28;20170;-60
2021/11/26 02:22:01;;;;;;;27.77;12.63;;;0.40;96.00;;;;;;2066056;28;20587;-62
2021/11/26 02:23:03;;;;;;;28.60;13.27;;;0.40;96.00;;;;;;2065859;28;20179;-62
2021/11/26 02:24:04;;;;;;;27.45;13.15;;;0.40;96.10;;;;;;2065218;28;20712;-62
2021/11/26 02:25:07;;;;;;;30.33;12.73;;;0.40;96.20;;;;;;2065917;28;20195;-61
2021/11/26 02:26:08;;;;;;;27.42;12.90;;;0.30;96.00;;;;;;2065872;28;20191;-62
2021/11/26 02:27:09;;;;;;;28.27;12.93;;;0.30;96.30;;;;;;2065540;28;20182;-61
2021/11/26 02:28:14;;;;;;;23.97;11.70;;;0.30;96.50;;;;;;2057288;28;20178;-61
2021/11/26 02:29:17;;;;;;;30.65;11.75;;;0.20;96.70;;;;;;2057744;28;20607;-62
2021/11/26 02:30:19;;;;;;;30.38;13.05;;;0.20;96.60;;;;;;2065856;28;20685;-62
2021/11/26 02:31:19;;;;;;;25.50;12.35;;;0.20;96.70;;;;;;2065931;28;20204;-61
2021/11/26 02:32:22;;;;;;;31.43;13.17;;;0.20;97.00;;;;;;2065839;28;20237;-62
2021/11/26 02:33:23;;;;;;;32.60;13.13;;;0.10;97.20;;;;;;2065744;28;20598;-61
2021/11/26 02:34:24;;;;;;;28.98;12.95;;;0.10;97.30;;;;;;2065922;28;20519;-61
2021/11/26 02:35:27;;;;;;;32.87;12.90;;;0.00;97.30;;;;;;2065813;28;20216;-61
2021/11/26 02:36:28;;;;;;;28.25;12.10;;;0.00;97.30;;;;;;2065728;28;20170;-61
2021/11/26 02:37:29;;;;;;;27.57;12.43;;;0.00;97.60;;;;;;2065339;28;20694;-61
2021/11/26 02:38:30;;;;;;;28.90;13.50;;;0.00;97.70;;;;;;2065725;28;20174;-61
2021/11/26 02:39:30;;;;;;;30.93;13.53;;;0.00;97.70;;;;;;2065799;28;20210;-62
2021/11/26 02:40:33;;;;;;;29.27;12.70;;;0.00;97.50;;;;;;2065880;28;20253;-62
2021/11/26 02:41:43;;;;;;;28.23;13.30;;;0.00;97.10;;;;;;2065808;28;20178;-62
2021/11/26 02:42:44;;;;;;;29.17;12.45;;;-0.10;97.10;;;;;;2065824;28;20180;-60
2021/11/26 02:43:45;;;;;;;30.08;13.27;;;-0.10;97.50;;;;;;2065796;28;20179;-62
2021/11/26 02:44:46;;;;;;;29.55;13.00;;;-0.10;97.70;;;;;;2065794;28;20183;-61
2021/11/26 02:45:47;;;;;;;27.67;12.70;;;-0.10;97.90;;;;;;2065861;28;20265;-60
2021/11/26 02:46:47;;;;;;;27.47;14.13;;;-0.10;97.70;;;;;;2065587;28;20644;-62
2021/11/26 02:47:49;;;;;;;27.90;12.73;;;-0.10;97.80;;;;;;2065620;28;20190;-61
2021/11/26 02:48:49;;;;;;;29.02;12.68;;;-0.20;97.90;;;;;;2056984;28;20848;-60
2021/11/26 02:49:50;;;;;;;27.93;13.23;;;-0.20;98.00;;;;;;2057130;28;20175;-62
2021/11/26 02:50:51;;;;;;;30.17;13.73;;;-0.20;98.00;;;;;;2065671;28;20672;-62
2021/11/26 02:51:52;;;;;;;31.30;12.67;;;-0.20;98.20;;;;;;2065742;28;20232;-61
2021/11/26 02:52:54;;;;;;;25.63;12.10;;;-0.20;98.30;;;;;;2065743;28;20552;-62
2021/11/26 02:53:55;;;;;;;29.20;13.23;;;-0.20;98.10;;;;;;2065766;28;20178;-61
2021/11/26 02:54:56;;;;;;;31.93;13.63;;;-0.20;98.00;;;;;;2065699;28;20405;-61
2021/11/26 02:55:57;;;;;;;31.00;12.93;;;-0.20;98.10;;;;;;2065724;28;20190;-61
2021/11/26 02:56:57;;;;;;;29.03;13.10;;;-0.20;98.10;;;;;;2065489;28;20182;-62
2021/11/26 02:57:59;;;;;;;26.93;12.60;;;-0.20;98.00;;;;;;2065781;28;20970;-61
2021/11/26 02:59:00;;;;;;;28.00;12.68;;;-0.20;97.90;;;;;;2065574;28;20566;-61
2021/11/26 03:00:01;;;;;;;31.17;12.67;;;-0.20;98.00;;;;;;2065753;28;20194;-61
2021/11/26 03:01:03;;;;;;;27.05;13.20;;;-0.20;98.00;;;;;;2065680;28;20190;-61
2021/11/26 03:02:03;;;;;;;27.63;12.27;;;-0.20;98.10;;;;;;2065776;28;20183;-61
2021/11/26 03:03:05;;;;;;;29.97;12.53;;;-0.20;98.00;;;;;;2065674;28;20194;-61
2021/11/26 03:04:05;;;;;;;28.23;13.13;;;-0.20;98.10;;;;;;2065657;28;20183;-61
2021/11/26 03:05:07;;;;;;;31.43;13.40;;;-0.20;98.20;;;;;;2065626;28;20667;-61
2021/11/26 03:06:08;;;;;;;29.08;12.80;;;-0.20;98.20;;;;;;2065710;28;20210;-61
2021/11/26 03:07:09;;;;;;;26.40;12.50;;;-0.10;98.20;;;;;;2065218;28;20244;-60
2021/11/26 03:08:11;;;;;;;28.80;12.60;;;-0.20;98.70;;;;;;2065655;28;20368;-61
2021/11/26 03:09:11;;;;;;;28.52;13.45;;;-0.10;98.20;;;;;;2065626;28;20195;-61
2021/11/26 03:10:18;;;;;;;28.47;12.97;;;-0.10;98.20;;;;;;2065561;28;20202;-61
2021/11/26 03:11:19;;;;;;;27.77;13.27;;;-0.20;98.10;;;;;;2065602;28;20194;-61
2021/11/26 03:12:20;;;;;;;24.33;12.33;;;-0.20;97.90;;;;;;2065799;28;20179;-61
2021/11/26 03:13:20;;;;;;;30.03;12.90;;;-0.20;97.60;;;;;;2065511;28;20193;-60
2021/11/26 03:14:21;;;;;;;27.67;12.70;;;-0.20;97.70;;;;;;2057051;28;20182;-61
2021/11/26 03:15:24;;;;;;;33.00;14.20;;;-0.20;98.10;;;;;;2056956;28;20278;-61
2021/11/26 03:16:24;;;;;;;29.00;13.18;;;-0.30;98.30;;;;;;2065907;28;20187;-61
2021/11/26 03:17:26;;;;;;;26.53;13.03;;;-0.30;98.30;;;;;;2065284;28;20213;-60
2021/11/26 03:18:28;;;;;;;25.52;12.73;;;-0.30;98.40;;;;;;2065732;28;20320;-61
2021/11/26 03:19:29;;;;;;;29.55;12.68;;;-0.30;98.40;;;;;;2065722;28;20194;-61
2021/11/26 03:20:31;;;;;;;26.70;12.75;;;-0.30;99.00;;;;;;2065686;28;20266;-61
2021/11/26 03:21:32;;;;;;;29.20;14.65;;;-0.30;98.30;;;;;;2063772;28;20518;-61
2021/11/26 03:22:33;;;;;;;30.07;13.10;;;-0.30;98.20;;;;;;2065554;28;20234;-61
2021/11/26 03:23:33;;;;;;;26.70;13.33;;;-0.30;98.30;;;;;;2065478;28;20697;-61
2021/11/26 03:24:34;;;;;;;24.10;12.80;;;-0.30;98.50;;;;;;2065638;28;20187;-61
2021/11/26 03:25:35;;;;;;;29.33;12.97;;;-0.30;98.40;;;;;;2065382;28;20202;-61
2021/11/26 03:26:36;;;;;;;32.40;14.87;;;-0.20;98.30;;;;;;2065498;28;20185;-61
2021/11/26 03:27:37;;;;;;;29.70;13.53;;;-0.20;98.10;;;;;;2065132;28;20203;-61
2021/11/26 03:28:38;;;;;;;28.60;12.55;;;-0.10;98.10;;;;;;2065558;28;20268;-60
2021/11/26 03:29:38;;;;;;;31.67;12.63;;;-0.10;97.90;;;;;;2065445;28;20213;-60
2021/11/26 03:30:41;;;;;;;29.13;13.67;;;-0.10;97.60;;;;;;2065402;28;20226;-61
2021/11/26 03:31:42;;;;;;;29.67;13.95;;;-0.10;97.50;;;;;;2065482;28;20197;-62
2021/11/26 03:32:44;;;;;;;29.50;13.77;;;-0.10;98.10;;;;;;2065427;28;20189;-61
2021/11/26 03:33:45;;;;;;;27.20;12.60;;;-0.10;97.70;;;;;;2065509;28;20197;-61
2021/11/26 03:34:45;;;;;;;26.90;12.90;;;-0.10;97.70;;;;;;2065235;28;20205;-61
2021/11/26 03:35:47;;;;;;;30.17;13.17;;;-0.20;97.90;;;;;;2064294;28;20183;-61
2021/11/26 03:36:48;;;;;;;27.52;12.10;;;-0.10;97.90;;;;;;2065059;28;20193;-62
2021/11/26 03:37:49;;;;;;;29.03;13.00;;;-0.10;97.40;;;;;;2065254;28;20264;-61
2021/11/26 03:38:50;;;;;;;28.48;11.98;;;-0.10;97.60;;;;;;2065411;28;20178;-60
2021/11/26 03:39:51;;;;;;;28.53;13.03;;;-0.10;97.70;;;;;;2065097;28;20213;-61
2021/11/26 03:40:51;;;;;;;27.70;13.20;;;-0.10;97.60;;;;;;2065346;28;20269;-61
2021/11/26 03:41:52;;;;;;;27.00;12.27;;;-0.20;97.50;;;;;;2065381;28;20170;-61
2021/11/26 03:42:55;;;;;;;24.97;12.00;;;-0.20;97.50;;;;;;2065348;28;20661;-61
2021/11/26 03:43:56;;;;;;;26.58;12.35;;;-0.20;97.80;;;;;;2065343;28;20534;-60
2021/11/26 03:44:57;;;;;;;33.47;13.63;;;-0.20;97.70;;;;;;2065197;28;20226;-62
2021/11/26 03:45:57;;;;;;;29.77;13.40;;;-0.30;97.70;;;;;;2065333;28;20185;-61
2021/11/26 03:46:58;;;;;;;29.80;13.67;;;-0.20;97.90;;;;;;2064984;28;20257;-61
2021/11/26 03:48:00;;;;;;;26.35;12.98;;;-0.20;97.90;;;;;;2065334;28;20216;-60
2021/11/26 03:49:01;;;;;;;32.72;13.52;;;-0.20;97.80;;;;;;2065287;28;20242;-61
2021/11/26 03:50:05;;;;;;;29.95;13.23;;;-0.30;98.00;;;;;;2065388;28;20174;-61
2021/11/26 03:51:05;;;;;;;33.92;14.88;;;-0.30;98.00;;;;;;2065214;28;20305;-61
2021/11/26 03:52:06;;;;;;;33.13;13.10;;;-0.30;98.20;;;;;;2065373;28;20185;-61
2021/11/26 03:53:07;;;;;;;30.00;13.63;;;-0.30;98.30;;;;;;2065306;28;20189;-61
2021/11/26 03:54:08;;;;;;;31.33;13.73;;;-0.30;98.10;;;;;;2065386;28;20181;-61
2021/11/26 03:55:15;;;;;;;29.27;13.70;;;-0.40;98.10;;;;;;2065176;28;20178;-61
2021/11/26 03:56:15;;;;;;;29.30;13.10;;;-0.40;98.10;;;;;;2065499;28;20810;-61
2021/11/26 03:57:17;;;;;;;29.93;12.40;;;-0.40;98.30;;;;;;2065056;28;20259;-61
2021/11/26 03:58:17;;;;;;;32.97;14.18;;;-0.40;98.50;;;;;;2065217;28;20246;-61
2021/11/26 03:59:18;;;;;;;29.73;13.03;;;-0.40;98.40;;;;;;2065218;28;20648;-61
2021/11/26 04:00:19;;;;;;;32.77;14.87;;;-0.50;98.40;;;;;;2065235;28;20178;-61
2021/11/26 04:01:20;;;;;;;35.03;14.45;;;-0.60;98.50;;;;;;2065377;28;20190;-62
2021/11/26 04:02:21;;;;;;;32.77;14.80;;;-0.60;98.80;;;;;;2065540;28;20258;-59
2021/11/26 04:03:22;;;;;;;30.70;13.20;;;-0.60;98.90;;;;;;2065126;28;20179;-59
2021/11/26 04:04:22;;;;;;;33.07;14.20;;;-0.60;99.10;;;;;;2065338;28;20183;-61
2021/11/26 04:05:23;;;;;;;32.93;14.00;;;-0.60;99.30;;;;;;2065163;28;20190;-61
2021/11/26 04:06:24;;;;;;;33.03;12.70;;;-0.50;99.40;;;;;;2065191;28;20246;-61
2021/11/26 04:07:24;;;;;;;30.23;12.73;;;-0.50;99.00;;;;;;2064811;28;20200;-60
2021/11/26 04:08:25;;;;;;;36.17;14.23;;;-0.50;99.40;;;;;;2065210;28;20236;-60
2021/11/26 04:09:26;;;;;;;30.37;13.07;;;-0.60;98.90;;;;;;2065305;28;20730;-59
2021/11/26 04:10:29;;;;;;;31.95;13.40;;;-0.50;98.90;;;;;;2065235;28;20417;-61
2021/11/26 04:11:32;;;;;;;33.50;14.23;;;-0.60;98.90;;;;;;2056414;28;20355;-60
2021/11/26 04:12:33;;;;;;;34.90;13.65;;;-0.50;98.90;;;;;;2056957;28;20175;-61
2021/11/26 04:13:33;;;;;;;30.67;13.23;;;-0.50;98.80;;;;;;2065266;28;20187;-59
2021/11/26 04:14:34;;;;;;;33.70;14.07;;;-0.60;99.00;;;;;;2056587;28;20194;-61
2021/11/26 04:15:38;;;;;;;31.83;13.17;;;-0.60;99.20;;;;;;2056639;28;20407;-61
2021/11/26 04:16:38;;;;;;;33.97;14.02;;;-0.60;99.20;;;;;;2065118;28;20636;-61
2021/11/26 04:17:40;;;;;;;33.60;13.73;;;-0.60;99.30;;;;;;2064796;28;20210;-61
2021/11/26 04:18:41;;;;;;;30.38;13.18;;;-0.60;99.90;;;;;;2065281;28;20186;-61
2021/11/26 04:19:42;;;;;;;29.95;13.65;;;-0.70;99.50;;;;;;2065157;28;20198;-60
2021/11/26 04:20:43;;;;;;;38.53;13.93;;;-0.70;99.80;;;;;;2065202;28;20233;-61
2021/11/26 04:21:44;;;;;;;29.17;12.48;;;-0.70;99.90;;;;;;2065150;28;20675;-60
2021/11/26 04:22:46;;;;;;;29.83;12.77;;;-0.70;99.90;;;;;;2065442;28;20249;-61
2021/11/26 04:23:47;;;;;;;33.78;12.93;;;-0.70;99.90;;;;;;2065207;28;20667;-61
2021/11/26 04:24:48;;;;;;;26.33;12.10;;;-0.70;99.90;;;;;;2056573;28;20225;-60
2021/11/26 04:25:48;;;;;;;30.97;12.87;;;-0.70;99.80;;;;;;2056349;28;20175;-61
2021/11/26 04:26:49;;;;;;;30.93;13.87;;;-0.70;99.60;;;;;;2065026;28;20253;-61
2021/11/26 04:27:50;;;;;;;31.43;13.07;;;-0.60;99.50;;;;;;2065062;28;20564;-60
2021/11/26 04:28:51;;;;;;;30.75;12.93;;;-0.60;99.50;;;;;;2065217;28;20655;-62
2021/11/26 04:29:52;;;;;;;27.10;11.82;;;-0.60;99.30;;;;;;2065227;28;20273;-58
2021/11/26 04:30:53;;;;;;;27.20;12.13;;;-0.70;99.20;;;;;;2065085;28;20210;-60
2021/11/26 04:31:54;;;;;;;34.60;13.57;;;-0.70;99.30;;;;;;2065217;28;20186;-59
2021/11/26 04:32:55;;;;;;;26.23;11.87;;;-0.70;99.40;;;;;;2065158;28;20191;-61
2021/11/26 04:33:56;;;;;;;32.53;12.13;;;-0.70;99.40;;;;;;2065106;28;20444;-59
2021/11/26 04:34:58;;;;;;;30.00;12.83;;;-0.60;99.30;;;;;;2065089;28;20213;-61
2021/11/26 04:35:59;;;;;;;27.88;11.98;;;-0.70;99.30;;;;;;2065144;28;20186;-59
2021/11/26 04:37:00;;;;;;;32.85;12.18;;;-0.70;99.30;;;;;;2064750;28;20670;-58
2021/11/26 04:38:01;;;;;;;28.67;12.07;;;-0.70;99.40;;;;;;2065165;28;20194;-61
2021/11/26 04:39:04;;;;;;;27.40;12.20;;;-0.70;99.50;;;;;;2064946;28;20245;-61
2021/11/26 04:40:08;;;;;;;29.10;13.38;;;-0.60;99.40;;;;;;2065128;28;20178;-61
2021/11/26 04:41:09;;;;;;;26.10;13.13;;;-0.60;99.10;;;;;;2064923;28;20190;-61
2021/11/26 04:42:11;;;;;;;23.10;11.93;;;-0.50;99.10;;;;;;2065041;28;20179;-62
2021/11/26 04:43:13;;;;;;;23.75;11.75;;;-0.50;99.00;;;;;;2065066;28;20198;-59
2021/11/26 04:44:13;;;;;;;26.67;12.30;;;-0.50;98.90;;;;;;2065061;28;20629;-62
2021/11/26 04:45:16;;;;;;;30.13;13.00;;;-0.50;98.70;;;;;;2064945;28;20221;-62
2021/11/26 04:46:17;;;;;;;25.08;11.25;;;-0.40;98.80;;;;;;2064846;28;20186;-60
2021/11/26 04:47:17;;;;;;;23.73;12.17;;;-0.50;98.60;;;;;;2064430;28;20210;-62
2021/11/26 04:48:20;;;;;;;24.60;12.43;;;-0.40;98.70;;;;;;2064992;28;20658;-61
2021/11/26 04:49:20;;;;;;;23.33;11.10;;;-0.40;98.80;;;;;;2056261;28;20255;-61
2021/11/26 04:50:21;;;;;;;30.13;12.37;;;-0.40;98.60;;;;;;2056256;28;20191;-61
2021/11/26 04:51:22;;;;;;;24.77;11.10;;;-0.40;98.40;;;;;;2064899;28;20666;-61
2021/11/26 04:52:23;;;;;;;24.33;11.33;;;-0.40;98.10;;;;;;2065053;28;20183;-60
2021/11/26 04:53:23;;;;;;;23.80;11.60;;;-0.50;98.10;;;;;;2064966;28;20265;-61
2021/11/26 04:54:24;;;;;;;23.40;11.83;;;-0.40;98.20;;;;;;2064969;28;20762;-61
2021/11/26 04:55:25;;;;;;;24.87;11.70;;;-0.40;98.20;;;;;;2064972;28;20186;-60
2021/11/26 04:56:26;;;;;;;27.05;11.63;;;-0.40;98.50;;;;;;2064868;28;20219;-61
2021/11/26 04:57:27;;;;;;;24.00;11.70;;;-0.40;98.40;;;;;;2064681;28;20302;-61
2021/11/26 04:58:32;;;;;;;24.27;10.97;;;-0.30;98.10;;;;;;2064877;28;20185;-61
2021/11/26 04:59:33;;;;;;;25.38;11.10;;;-0.30;98.00;;;;;;2065010;28;20245;-59
2021/11/26 05:00:34;;;;;;;24.43;11.40;;;-0.30;98.00;;;;;;2064967;28;20280;-60
2021/11/26 05:01:35;;;;;;;22.85;10.25;;;-0.30;97.80;;;;;;2064918;28;20237;-62
2021/11/26 05:02:36;;;;;;;27.20;11.50;;;-0.30;97.80;;;;;;2056420;28;20242;-61
2021/11/26 05:03:37;;;;;;;24.17;10.90;;;-0.30;97.70;;;;;;2056261;28;20187;-61
2021/11/26 05:04:37;;;;;;;24.33;10.73;;;-0.30;97.80;;;;;;2064941;28;20206;-61
2021/11/26 05:05:38;;;;;;;22.83;11.30;;;-0.30;97.90;;;;;;2064922;28;20224;-61
2021/11/26 05:06:39;;;;;;;25.05;11.40;;;-0.30;97.90;;;;;;2064828;28;20201;-61
2021/11/26 05:07:40;;;;;;;22.83;11.10;;;-0.20;97.90;;;;;;2064579;28;20217;-61
2021/11/26 05:08:41;;;;;;;19.60;10.10;;;-0.20;97.40;;;;;;2065043;28;20232;-60
2021/11/26 05:09:41;;;;;;;21.43;10.80;;;-0.20;97.20;;;;;;2064893;28;20178;-60
2021/11/26 05:10:50;;;;;;;22.23;11.20;;;-0.20;97.00;;;;;;2065049;28;20222;-59
2021/11/26 05:11:53;;;;;;;20.83;10.32;;;-0.20;97.00;;;;;;2064797;28;20201;-62
2021/11/26 05:12:56;;;;;;;23.77;11.40;;;-0.20;96.80;;;;;;2064941;28;20221;-62
2021/11/26 05:13:57;;;;;;;22.05;10.25;;;-0.10;96.70;;;;;;2064832;28;20556;-61